Aviation Digital Data Service (ADDS)

Output produced by METARs form (0843 UTC 24 March 2019)
found at http://www.aviationweather.gov/metar/data/
 
Forecast for: LDZA (ZAGREB/PLESO , HR)
Text: TAF LDZA 240525Z 2406/2506 VRB02KT CAVOK TX21/2413Z TN03/2406Z
Forecast period: 0600 UTC 24 March 2019 to 0600 UTC 25 March 2019
Forecast type: FROM: standard forecast or significant change
Winds: variable direction winds at 2 MPH (2 knots; 1.0 m/s)
Visibility: 6 or more miles 10+ km)
Ceiling: unknown
Clouds: missing
Weather: no significant weather forecast for this period